createdAt,value
2023-02-19T00:01:44.050Z,100969.22
2023-02-19T00:04:15.147Z,100960.31
2023-02-19T00:06:42.624Z,100958.00
2023-02-19T00:09:14.157Z,100958.56
2023-02-19T00:11:41.929Z,100954.84
2023-02-19T00:14:09.149Z,100958.47
2023-02-19T00:16:38.721Z,100948.06
2023-02-19T00:19:07.988Z,100946.22
2023-02-19T00:21:34.706Z,100948.34
2023-02-19T00:24:04.137Z,100939.63
2023-02-19T00:26:31.146Z,100935.78
2023-02-19T00:28:58.383Z,100923.94
2023-02-19T00:31:27.662Z,100929.13
2023-02-19T00:33:56.853Z,100926.34
2023-02-19T00:36:24.613Z,100925.53
2023-02-19T00:38:51.541Z,100925.31
2023-02-19T00:41:19.680Z,100921.16
2023-02-19T00:43:48.280Z,100919.38
2023-02-19T00:46:19.666Z,100915.69
2023-02-19T00:48:46.820Z,100917.72
2023-02-19T00:51:13.727Z,100919.31
2023-02-19T00:53:40.675Z,100918.69
2023-02-19T00:56:08.284Z,100909.28
2023-02-19T00:58:35.575Z,100911.97
2023-02-19T01:01:02.487Z,100912.53
2023-02-19T01:03:32.489Z,100902.78
2023-02-19T01:05:59.556Z,100913.66
2023-02-19T01:08:26.209Z,100917.91
2023-02-19T01:10:53.082Z,100918.88
2023-02-19T01:13:19.676Z,100911.53
2023-02-19T01:15:46.497Z,100910.50
2023-02-19T01:18:13.248Z,100912.53
2023-02-19T01:20:44.673Z,100920.06
2023-02-19T01:23:12.932Z,100924.53
2023-02-19T01:25:42.753Z,100931.09
2023-02-19T01:28:11.237Z,100940.16
2023-02-19T01:30:39.080Z,100935.50
2023-02-19T01:33:07.364Z,100940.31
2023-02-19T01:35:35.112Z,100929.44
2023-02-19T01:38:01.636Z,100928.72
2023-02-19T01:40:28.178Z,100932.81
2023-02-19T01:42:54.753Z,100925.75
2023-02-19T01:45:24.206Z,100914.34
2023-02-19T01:47:56.505Z,100924.75
2023-02-19T01:50:26.510Z,100924.41
2023-02-19T01:52:53.052Z,100917.16
2023-02-19T01:55:20.232Z,100914.59
2023-02-19T01:57:51.793Z,100908.66
2023-02-19T02:00:19.238Z,100920.97
2023-02-19T02:02:51.662Z,100920.34
2023-02-19T02:05:25.416Z,100907.88
2023-02-19T02:08:10.985Z,100900.94
2023-02-19T02:10:37.616Z,100894.00
2023-02-19T02:13:04.421Z,100903.94
2023-02-19T02:15:45.749Z,100907.88
2023-02-19T02:18:21.170Z,100896.22
2023-02-19T02:21:09.421Z,100882.41
2023-02-19T02:24:03.873Z,100887.19
2023-02-19T02:27:06.229Z,100883.53
2023-02-19T02:29:54.413Z,100880.66
2023-02-19T02:32:27.032Z,100884.56
2023-02-19T02:35:13.386Z,100884.94
2023-02-19T02:37:42.584Z,100883.34
2023-02-19T02:40:10.909Z,100884.66
2023-02-19T02:42:40.047Z,100881.44
2023-02-19T02:45:37.102Z,100886.38
2023-02-19T02:48:21.098Z,100890.88
2023-02-19T02:50:52.199Z,100889.69
2023-02-19T02:53:51.092Z,100880.47
2023-02-19T02:56:18.803Z,100882.16
2023-02-19T02:58:47.581Z,100881.59
2023-02-19T03:01:42.306Z,100872.66
2023-02-19T03:04:14.553Z,100875.81
2023-02-19T03:06:42.483Z,100876.25
2023-02-19T03:09:19.858Z,100875.34
2023-02-19T03:12:08.499Z,100876.47
2023-02-19T03:15:00.951Z,100875.16
2023-02-19T03:17:55.345Z,100873.03
2023-02-19T03:20:24.145Z,100867.03
2023-02-19T03:22:53.142Z,100867.38
2023-02-19T03:25:45.363Z,100866.72
2023-02-19T03:28:17.417Z,100862.31
2023-02-19T03:30:49.675Z,100857.03
2023-02-19T03:33:21.608Z,100861.84
2023-02-19T03:35:54.729Z,100864.78
2023-02-19T03:38:29.908Z,100863.94
2023-02-19T03:41:10.360Z,100869.66
2023-02-19T03:43:43.157Z,100860.59
2023-02-19T03:46:14.502Z,100856.22
2023-02-19T03:49:04.350Z,100855.56
2023-02-19T03:51:41.901Z,100858.13
2023-02-19T03:54:13.352Z,100852.16
2023-02-19T03:56:52.934Z,100852.34
2023-02-19T03:59:22.089Z,100856.22
2023-02-19T04:02:00.562Z,100857.72
2023-02-19T04:04:47.374Z,100851.41
2023-02-19T04:07:14.317Z,100851.94
2023-02-19T04:09:45.986Z,100847.63
2023-02-19T04:12:14.241Z,100844.53
2023-02-19T04:15:01.982Z,100843.09
2023-02-19T04:17:39.613Z,100850.75
2023-02-19T04:20:10.040Z,100857.41
2023-02-19T04:22:37.514Z,100867.66
2023-02-19T04:25:04.885Z,100867.78
2023-02-19T04:27:31.533Z,100874.72
2023-02-19T04:29:58.149Z,100875.69
2023-02-19T04:32:24.648Z,100868.22
2023-02-19T04:34:53.333Z,100864.44
2023-02-19T04:37:20.692Z,100869.19
2023-02-19T04:39:47.293Z,100864.19
2023-02-19T04:42:13.823Z,100869.03
2023-02-19T04:44:41.166Z,100869.63
2023-02-19T04:47:08.213Z,100870.59
2023-02-19T04:49:34.772Z,100876.16
2023-02-19T04:52:01.292Z,100872.09
2023-02-19T04:54:27.858Z,100881.06
2023-02-19T04:56:54.449Z,100882.81
2023-02-19T04:59:21.028Z,100890.41
2023-02-19T05:01:47.674Z,100876.59
2023-02-19T05:04:14.358Z,100881.69
2023-02-19T05:06:41.312Z,100881.06
2023-02-19T05:09:07.949Z,100886.78
2023-02-19T05:11:34.517Z,100878.88
2023-02-19T05:14:01.426Z,100866.63
2023-02-19T05:16:27.993Z,100871.84
2023-02-19T05:18:54.590Z,100868.88
2023-02-19T05:21:21.168Z,100867.63
2023-02-19T05:23:47.673Z,100871.94
2023-02-19T05:26:18.207Z,100883.38
2023-02-19T05:28:50.620Z,100880.00
2023-02-19T05:31:17.777Z,100884.34
2023-02-19T05:33:45.751Z,100884.44
2023-02-19T05:36:14.290Z,100888.47
2023-02-19T05:38:41.306Z,100893.66
2023-02-19T05:41:16.217Z,100886.34
2023-02-19T05:43:44.325Z,100887.75
2023-02-19T05:46:13.127Z,100886.78
2023-02-19T05:48:39.921Z,100884.66
2023-02-19T05:51:09.621Z,100880.19
2023-02-19T05:53:36.814Z,100886.34
2023-02-19T05:56:03.988Z,100897.22
2023-02-19T05:58:31.054Z,100903.28
2023-02-19T06:00:57.591Z,100901.47
2023-02-19T06:03:25.050Z,100904.09
2023-02-19T06:05:51.617Z,100896.63
2023-02-19T06:08:18.232Z,100904.28
2023-02-19T06:10:45.265Z,100896.53
2023-02-19T06:13:11.877Z,100904.34
2023-02-19T06:15:38.657Z,100898.44
2023-02-19T06:18:05.298Z,100901.09
2023-02-19T06:20:33.082Z,100909.53
2023-02-19T06:22:59.707Z,100905.25
2023-02-19T06:25:26.317Z,100915.22
2023-02-19T06:27:52.858Z,100913.31
2023-02-19T06:30:19.572Z,100910.84
2023-02-19T06:32:46.960Z,100919.41
2023-02-19T06:35:13.519Z,100912.53
2023-02-19T06:37:40.113Z,100910.66
2023-02-19T06:40:07.159Z,100907.75
2023-02-19T06:42:33.732Z,100906.03
2023-02-19T06:45:00.365Z,100907.13
2023-02-19T06:47:27.126Z,100913.78
2023-02-19T06:49:53.699Z,100918.06
2023-02-19T06:52:20.238Z,100930.72
2023-02-19T06:54:47.005Z,100930.63
2023-02-19T06:57:13.527Z,100929.38
2023-02-19T06:59:40.056Z,100932.59
2023-02-19T07:02:07.160Z,100937.94
2023-02-19T07:04:33.784Z,100949.25
2023-02-19T07:07:00.356Z,100949.56
2023-02-19T07:09:28.504Z,100956.63
2023-02-19T07:11:55.130Z,100972.22
2023-02-19T07:14:21.999Z,100976.84
2023-02-19T07:16:49.438Z,100974.28
2023-02-19T07:19:16.437Z,100986.75
2023-02-19T07:21:43.219Z,100990.97
2023-02-19T07:24:10.353Z,100992.56
2023-02-19T07:26:36.970Z,101006.56
2023-02-19T07:29:04.184Z,101007.22
2023-02-19T07:31:30.845Z,101003.88
2023-02-19T07:33:57.534Z,101005.94
2023-02-19T07:36:24.740Z,101015.47
2023-02-19T07:38:59.004Z,101015.47
2023-02-19T07:41:27.305Z,101009.59
2023-02-19T07:43:54.462Z,101005.09
2023-02-19T07:46:22.048Z,101012.59
2023-02-19T07:48:49.015Z,101010.22
2023-02-19T07:51:19.900Z,101019.72
2023-02-19T07:53:50.352Z,101024.09
2023-02-19T07:56:17.877Z,101031.91
2023-02-19T07:58:46.231Z,101037.69
2023-02-19T08:01:44.336Z,101032.66
2023-02-19T08:04:12.849Z,101041.25
2023-02-19T08:06:39.467Z,101052.84
2023-02-19T08:09:06.348Z,101050.69
2023-02-19T08:11:52.395Z,101050.38
2023-02-19T08:14:19.097Z,101054.53
2023-02-19T08:16:51.835Z,101058.78
2023-02-19T08:19:18.755Z,101062.34
2023-02-19T08:21:45.368Z,101067.75
2023-02-19T08:24:11.947Z,101075.09
2023-02-19T08:26:38.705Z,101076.34
2023-02-19T08:29:06.510Z,101076.66
2023-02-19T08:31:34.574Z,101086.75
2023-02-19T08:34:01.437Z,101090.09
2023-02-19T08:36:28.032Z,101094.03
2023-02-19T08:38:54.558Z,101093.16
2023-02-19T08:41:21.162Z,101087.22
2023-02-19T08:43:47.770Z,101094.28
2023-02-19T08:46:14.339Z,101089.59
2023-02-19T08:48:40.965Z,101093.19
2023-02-19T08:51:10.463Z,101086.38
2023-02-19T08:53:39.385Z,101095.53
2023-02-19T08:56:08.676Z,101098.91
2023-02-19T08:58:38.163Z,101096.59
2023-02-19T09:01:13.770Z,101103.09
2023-02-19T09:03:41.528Z,101103.09
2023-02-19T09:06:12.073Z,101108.56
2023-02-19T09:08:38.781Z,101107.44
2023-02-19T09:11:07.102Z,101122.81
2023-02-19T09:13:33.698Z,101129.06
2023-02-19T09:16:00.293Z,101120.97
2023-02-19T09:18:26.953Z,101125.22
2023-02-19T09:20:53.621Z,101132.16
2023-02-19T09:23:20.622Z,101128.91
2023-02-19T09:25:47.205Z,101146.00
2023-02-19T09:28:13.763Z,101149.34
2023-02-19T09:30:40.427Z,101152.88
2023-02-19T09:33:07.020Z,101147.66
2023-02-19T09:35:33.657Z,101153.91
2023-02-19T09:38:02.063Z,101160.25
2023-02-19T09:40:30.224Z,101159.88
2023-02-19T09:42:57.570Z,101165.25
2023-02-19T09:45:26.297Z,101175.56
2023-02-19T09:47:55.538Z,101174.13
2023-02-19T09:50:28.544Z,101167.59
2023-02-19T09:52:58.353Z,101163.72
2023-02-19T09:55:37.132Z,101161.75
2023-02-19T09:58:17.995Z,101167.84
2023-02-19T10:00:49.046Z,101169.28
2023-02-19T10:03:25.634Z,101177.47
2023-02-19T10:05:53.354Z,101185.31
2023-02-19T10:08:21.541Z,101183.06
2023-02-19T10:10:48.492Z,101187.69
2023-02-19T10:13:20.365Z,101194.16
2023-02-19T10:15:57.307Z,101202.81
2023-02-19T10:18:28.991Z,101201.22
2023-02-19T10:20:57.738Z,101198.47
2023-02-19T10:23:25.720Z,101194.59
2023-02-19T10:25:58.352Z,101200.81
2023-02-19T10:28:31.400Z,101198.59
2023-02-19T10:31:00.415Z,101208.34
2023-02-19T10:33:27.514Z,101203.53
2023-02-19T10:36:05.706Z,101198.06
2023-02-19T10:38:39.740Z,101190.66
2023-02-19T10:41:08.159Z,101189.53
2023-02-19T10:43:42.202Z,101187.00
2023-02-19T10:46:18.814Z,101185.69
2023-02-19T10:49:00.576Z,101186.22
2023-02-19T10:51:40.681Z,101184.06
2023-02-19T10:54:29.555Z,101186.59
2023-02-19T10:57:15.542Z,101180.31
2023-02-19T10:59:57.745Z,101186.38
2023-02-19T11:02:25.249Z,101182.22
2023-02-19T11:05:09.874Z,101184.97
2023-02-19T11:07:38.343Z,101189.09
2023-02-19T11:10:07.172Z,101185.06
2023-02-19T11:12:34.741Z,101196.28
2023-02-19T11:15:19.842Z,101194.34
2023-02-19T11:17:55.129Z,101192.94
2023-02-19T11:20:22.488Z,101191.56
2023-02-19T11:22:49.847Z,101187.50
2023-02-19T11:25:17.186Z,101186.03
2023-02-19T11:28:07.968Z,101172.56
2023-02-19T11:30:36.887Z,101156.66
2023-02-19T11:33:24.839Z,101160.03
2023-02-19T11:36:25.507Z,101155.72
2023-02-19T11:38:52.094Z,101155.72
2023-02-19T11:41:45.263Z,101150.38
2023-02-19T11:44:30.368Z,101143.69
2023-02-19T11:47:30.997Z,101146.94
2023-02-19T11:50:06.561Z,101144.28
2023-02-19T11:52:46.469Z,101137.06
2023-02-19T11:55:37.763Z,101130.91
2023-02-19T11:58:29.739Z,101131.22
2023-02-19T12:01:11.443Z,101126.94
2023-02-19T12:03:56.972Z,101123.38
2023-02-19T12:06:27.140Z,101115.72
2023-02-19T12:09:18.474Z,101113.19
2023-02-19T12:12:20.886Z,101097.66
2023-02-19T12:15:11.979Z,101098.75
2023-02-19T12:17:47.381Z,101101.91
2023-02-19T12:20:23.092Z,101096.56
2023-02-19T12:23:21.999Z,101087.25
2023-02-19T12:26:00.766Z,101080.13
2023-02-19T12:29:00.703Z,101071.09
2023-02-19T12:31:48.217Z,101072.50
2023-02-19T12:34:52.276Z,101062.53
2023-02-19T12:37:43.822Z,101061.22
2023-02-19T12:40:19.480Z,101052.06
2023-02-19T12:43:10.975Z,101057.59
2023-02-19T12:45:56.079Z,101056.78
2023-02-19T12:48:32.727Z,101046.50
2023-02-19T12:51:18.538Z,101036.00
2023-02-19T12:54:02.592Z,101046.19
2023-02-19T12:56:38.298Z,101048.63
2023-02-19T12:59:16.668Z,101037.41
2023-02-19T13:01:51.025Z,101029.50
2023-02-19T13:04:17.633Z,101025.09
2023-02-19T13:06:54.007Z,101024.44
2023-02-19T13:09:31.197Z,101009.09
2023-02-19T13:12:17.959Z,101009.53
2023-02-19T13:14:51.747Z,101010.13
2023-02-19T13:17:21.580Z,101008.50
2023-02-19T13:19:52.218Z,101001.72
2023-02-19T13:23:14.361Z,100993.72
2023-02-19T13:26:14.896Z,100989.00
2023-02-19T13:29:18.689Z,100990.69
2023-02-19T13:31:48.512Z,100980.34
2023-02-19T13:34:42.226Z,100983.88
2023-02-19T13:37:11.308Z,100973.91
2023-02-19T13:39:45.477Z,100970.97
2023-02-19T13:42:31.669Z,100956.91
2023-02-19T13:44:59.299Z,100965.31
2023-02-19T13:47:49.869Z,100956.56
2023-02-19T13:50:26.228Z,100957.50
2023-02-19T13:52:55.296Z,100953.34
2023-02-19T13:55:43.181Z,100939.28
2023-02-19T13:58:35.384Z,100951.44
2023-02-19T14:01:11.242Z,100948.16
2023-02-19T14:03:46.597Z,100947.38
2023-02-19T14:06:14.353Z,100942.88
2023-02-19T14:08:58.473Z,100936.47
2023-02-19T14:11:44.023Z,100929.59
2023-02-19T14:14:41.109Z,100934.81
2023-02-19T14:17:12.356Z,100937.50
2023-02-19T14:19:42.195Z,100928.94
2023-02-19T14:22:55.567Z,100929.59
2023-02-19T14:25:30.835Z,100928.91
2023-02-19T14:28:12.686Z,100921.19
2023-02-19T14:31:07.977Z,100916.97
2023-02-19T14:33:40.153Z,100913.09
2023-02-19T14:36:31.369Z,100918.56
2023-02-19T14:39:32.173Z,100911.63
2023-02-19T14:42:04.949Z,100925.31
2023-02-19T14:44:40.192Z,100913.41
2023-02-19T14:47:09.612Z,100915.16
2023-02-19T14:49:49.884Z,100905.81
2023-02-19T14:52:47.800Z,100911.34
2023-02-19T14:55:46.364Z,100902.72
2023-02-19T14:58:22.513Z,100907.81
2023-02-19T15:00:49.261Z,100904.06
2023-02-19T15:03:26.262Z,100894.44
2023-02-19T15:06:02.317Z,100900.44
2023-02-19T15:08:34.252Z,100893.72
2023-02-19T15:11:02.403Z,100897.84
2023-02-19T15:13:30.973Z,100897.22
2023-02-19T15:15:58.215Z,100895.50
2023-02-19T15:18:26.605Z,100894.66
2023-02-19T15:21:01.523Z,100892.13
2023-02-19T15:23:30.820Z,100892.84
2023-02-19T15:25:58.956Z,100895.53
2023-02-19T15:28:25.487Z,100891.84
2023-02-19T15:31:07.542Z,100895.25
2023-02-19T15:33:35.004Z,100886.97
2023-02-19T15:36:05.745Z,100886.22
2023-02-19T15:38:33.477Z,100895.56
2023-02-19T15:41:00.669Z,100881.00
2023-02-19T15:43:42.130Z,100881.13
2023-02-19T15:46:19.914Z,100878.53
2023-02-19T15:48:54.999Z,100885.47
2023-02-19T15:51:32.094Z,100872.66
2023-02-19T15:54:22.838Z,100873.53
2023-02-19T15:56:58.038Z,100885.63
2023-02-19T15:59:32.573Z,100876.19
2023-02-19T16:02:00.994Z,100883.72
2023-02-19T16:04:27.711Z,100874.38
2023-02-19T16:06:56.093Z,100873.53
2023-02-19T16:09:35.704Z,100874.47
2023-02-19T16:12:18.789Z,100874.66
2023-02-19T16:14:45.322Z,100871.00
2023-02-19T16:17:11.779Z,100874.53
2023-02-19T16:19:48.557Z,100876.19
2023-02-19T16:22:18.909Z,100880.41
2023-02-19T16:24:49.341Z,100880.41
2023-02-19T16:27:34.392Z,100879.47
2023-02-19T16:30:09.791Z,100885.47
2023-02-19T16:32:36.322Z,100880.09
2023-02-19T16:35:02.907Z,100882.53
2023-02-19T16:37:33.746Z,100889.34
2023-02-19T16:40:09.218Z,100885.13
2023-02-19T16:42:51.757Z,100891.00
2023-02-19T16:45:18.863Z,100889.94
2023-02-19T16:47:48.965Z,100878.78
2023-02-19T16:50:19.523Z,100895.03
2023-02-19T16:52:56.167Z,100899.28
2023-02-19T16:55:23.631Z,100891.44
2023-02-19T16:57:50.974Z,100893.84
2023-02-19T17:00:19.952Z,100898.13
2023-02-19T17:02:48.356Z,100893.88
2023-02-19T17:05:16.302Z,100887.66
2023-02-19T17:07:42.815Z,100893.69
2023-02-19T17:10:17.271Z,100898.63
2023-02-19T17:12:43.878Z,100895.03
2023-02-19T17:15:11.849Z,100903.81
2023-02-19T17:17:38.895Z,100901.66
2023-02-19T17:20:32.977Z,100908.47
2023-02-19T17:22:59.625Z,100912.50
2023-02-19T17:25:26.176Z,100911.63
2023-02-19T17:27:52.863Z,100916.47
2023-02-19T17:30:31.991Z,100910.28
2023-02-19T17:32:59.001Z,100910.03
2023-02-19T17:35:26.062Z,100910.13
2023-02-19T17:37:53.597Z,100919.50
2023-02-19T17:40:32.839Z,100920.06
2023-02-19T17:43:00.284Z,100917.31
2023-02-19T17:45:26.948Z,100916.22
2023-02-19T17:47:53.579Z,100921.16
2023-02-19T17:50:23.761Z,100925.16
2023-02-19T17:52:50.268Z,100924.09
2023-02-19T17:55:20.854Z,100923.22
2023-02-19T17:57:51.809Z,100929.94
2023-02-19T18:00:23.327Z,100922.97
2023-02-19T18:02:50.042Z,100928.66
2023-02-19T18:05:17.158Z,100925.84
2023-02-19T18:07:45.623Z,100925.56
2023-02-19T18:10:13.258Z,100932.28
2023-02-19T18:12:40.316Z,100926.31
2023-02-19T18:15:08.847Z,100933.59
2023-02-19T18:17:35.696Z,100917.09
2023-02-19T18:20:04.638Z,100924.63
2023-02-19T18:22:32.303Z,100920.25
2023-02-19T18:24:59.017Z,100924.53
2023-02-19T18:27:25.856Z,100916.50
2023-02-19T18:29:54.851Z,100917.81
2023-02-19T18:32:23.913Z,100910.75
2023-02-19T18:34:52.071Z,100907.16
2023-02-19T18:37:19.388Z,100915.47
2023-02-19T18:39:46.087Z,100911.84
2023-02-19T18:42:13.458Z,100908.13
2023-02-19T18:44:40.036Z,100903.78
2023-02-19T18:47:08.124Z,100907.78
2023-02-19T18:49:35.353Z,100899.88
2023-02-19T18:52:01.988Z,100902.25
2023-02-19T18:54:29.938Z,100889.16
2023-02-19T18:56:57.255Z,100897.50
2023-02-19T18:59:24.273Z,100893.13
2023-02-19T19:01:51.782Z,100906.78
2023-02-19T19:04:18.733Z,100909.38
2023-02-19T19:06:45.493Z,100888.31
2023-02-19T19:09:12.336Z,100886.31
2023-02-19T19:11:38.981Z,100872.38
2023-02-19T19:14:05.649Z,100874.94
2023-02-19T19:16:32.229Z,100867.91
2023-02-19T19:18:58.843Z,100865.22
2023-02-19T19:21:25.484Z,100883.97
2023-02-19T19:23:52.148Z,100863.25
2023-02-19T19:26:18.731Z,100872.69
2023-02-19T19:28:46.429Z,100864.13
2023-02-19T19:31:17.920Z,100868.38
2023-02-19T19:33:46.598Z,100866.59
2023-02-19T19:36:13.505Z,100863.13
2023-02-19T19:38:41.293Z,100858.72
2023-02-19T19:41:07.830Z,100843.22
2023-02-19T19:43:34.409Z,100837.97
2023-02-19T19:46:03.374Z,100808.53
2023-02-19T19:48:30.027Z,100796.31
2023-02-19T19:50:57.169Z,100806.53
2023-02-19T19:53:24.380Z,100802.03
2023-02-19T19:55:50.962Z,100793.41
2023-02-19T19:58:20.914Z,100810.47
2023-02-19T20:00:47.486Z,100821.38
2023-02-19T20:03:14.154Z,100818.78
2023-02-19T20:05:40.868Z,100806.94
2023-02-19T20:08:07.690Z,100811.97
2023-02-19T20:10:34.401Z,100821.59
2023-02-19T20:13:01.865Z,100826.09
2023-02-19T20:15:28.465Z,100820.97
2023-02-19T20:17:55.100Z,100818.28
2023-02-19T20:20:22.933Z,100810.41
2023-02-19T20:22:51.876Z,100806.78
2023-02-19T20:25:21.721Z,100801.44
2023-02-19T20:27:49.779Z,100798.59
2023-02-19T20:30:18.725Z,100789.06
2023-02-19T20:32:45.634Z,100791.47
2023-02-19T20:35:12.385Z,100770.97
2023-02-19T20:37:39.849Z,100764.63
2023-02-19T20:40:09.215Z,100767.75
2023-02-19T20:42:35.764Z,100759.91
2023-02-19T20:45:02.482Z,100746.00
2023-02-19T20:47:30.464Z,100727.41
2023-02-19T20:49:57.210Z,100721.97
2023-02-19T20:52:26.945Z,100743.34
2023-02-19T20:54:55.837Z,100740.44
2023-02-19T20:57:23.083Z,100749.97
2023-02-19T20:59:49.939Z,100765.28
2023-02-19T21:02:23.430Z,100760.84
2023-02-19T21:04:50.749Z,100753.91
2023-02-19T21:07:17.371Z,100757.47
2023-02-19T21:09:44.019Z,100751.38
2023-02-19T21:12:10.644Z,100755.91
2023-02-19T21:14:37.289Z,100768.00
2023-02-19T21:17:04.308Z,100766.53
2023-02-19T21:19:30.866Z,100788.03
2023-02-19T21:21:57.558Z,100795.34
2023-02-19T21:24:24.292Z,100800.34
2023-02-19T21:26:50.847Z,100799.41
2023-02-19T21:29:20.971Z,100795.94
2023-02-19T21:31:51.560Z,100793.31
2023-02-19T21:34:21.539Z,100802.53
2023-02-19T21:36:48.548Z,100800.06
2023-02-19T21:39:18.643Z,100804.41
2023-02-19T21:41:45.635Z,100805.09
2023-02-19T21:44:12.199Z,100804.47
2023-02-19T21:46:38.871Z,100817.25
2023-02-19T21:49:06.226Z,100809.91
2023-02-19T21:51:35.470Z,100802.00
2023-02-19T21:54:03.504Z,100799.94
2023-02-19T21:56:35.051Z,100785.97
2023-02-19T21:59:02.885Z,100775.00
2023-02-19T22:01:39.507Z,100763.72
2023-02-19T22:04:07.813Z,100762.59
2023-02-19T22:06:35.819Z,100753.66
2023-02-19T22:09:03.284Z,100741.66
2023-02-19T22:11:29.954Z,100747.34
2023-02-19T22:13:56.928Z,100740.91
2023-02-19T22:16:24.019Z,100728.31
2023-02-19T22:18:54.198Z,100725.63
2023-02-19T22:21:23.095Z,100712.81
2023-02-19T22:23:51.936Z,100705.88
2023-02-19T22:26:27.213Z,100709.91
2023-02-19T22:28:54.963Z,100691.75
2023-02-19T22:31:24.029Z,100699.19
2023-02-19T22:33:51.100Z,100701.22
2023-02-19T22:36:26.014Z,100704.47
2023-02-19T22:38:52.700Z,100690.97
2023-02-19T22:41:20.692Z,100694.91
2023-02-19T22:43:48.135Z,100699.75
2023-02-19T22:46:23.289Z,100695.31
2023-02-19T22:48:50.704Z,100684.69
2023-02-19T22:51:19.570Z,100686.72
2023-02-19T22:53:50.454Z,100686.72
2023-02-19T22:56:18.817Z,100681.22
2023-02-19T22:58:45.661Z,100688.44
2023-02-19T23:01:14.386Z,100682.53
2023-02-19T23:03:52.351Z,100674.81
2023-02-19T23:06:24.257Z,100668.44
2023-02-19T23:08:51.316Z,100665.06
2023-02-19T23:11:29.925Z,100655.63
2023-02-19T23:13:57.092Z,100643.03
2023-02-19T23:16:23.639Z,100656.28
2023-02-19T23:18:50.466Z,100656.88
2023-02-19T23:21:18.435Z,100648.28
2023-02-19T23:23:46.501Z,100649.19
2023-02-19T23:26:14.421Z,100653.41
2023-02-19T23:28:41.893Z,100637.78
2023-02-19T23:31:08.637Z,100648.44
2023-02-19T23:33:35.720Z,100633.19
2023-02-19T23:36:02.326Z,100634.34
2023-02-19T23:38:28.836Z,100637.88
2023-02-19T23:40:55.376Z,100624.25
2023-02-19T23:43:21.958Z,100626.69
2023-02-19T23:45:48.543Z,100627.00
2023-02-19T23:48:15.138Z,100627.47
2023-02-19T23:50:41.668Z,100621.66
2023-02-19T23:53:08.756Z,100619.09
2023-02-19T23:55:35.593Z,100621.53
2023-02-19T23:58:02.389Z,100615.31
